sensor_id;sensor_type;location;lat;lon;timestamp;P1;durP1;ratioP1;P2;durP2;ratioP2
74593;SDS011;63097;51.872;4.460;2023-07-13T00:01:23;32.33;;;4.03;;
74593;SDS011;63097;51.872;4.460;2023-07-13T00:03:48;45.67;;;4.75;;
74593;SDS011;63097;51.872;4.460;2023-07-13T00:06:14;35.20;;;4.47;;
74593;SDS011;63097;51.872;4.460;2023-07-13T00:08:39;34.30;;;4.30;;
74593;SDS011;63097;51.872;4.460;2023-07-13T00:11:04;42.80;;;4.60;;
74593;SDS011;63097;51.872;4.460;2023-07-13T00:13:30;41.90;;;4.30;;
74593;SDS011;63097;51.872;4.460;2023-07-13T00:15:57;39.20;;;4.95;;
74593;SDS011;63097;51.872;4.460;2023-07-13T00:18:23;42.92;;;5.28;;
74593;SDS011;63097;51.872;4.460;2023-07-13T00:20:49;40.75;;;3.97;;
74593;SDS011;63097;51.872;4.460;2023-07-13T00:23:14;41.75;;;4.40;;
74593;SDS011;63097;51.872;4.460;2023-07-13T00:25:40;37.15;;;4.00;;
74593;SDS011;63097;51.872;4.460;2023-07-13T00:28:05;36.90;;;3.80;;
74593;SDS011;63097;51.872;4.460;2023-07-13T00:30:31;40.60;;;3.72;;
74593;SDS011;63097;51.872;4.460;2023-07-13T00:32:56;44.25;;;4.05;;
74593;SDS011;63097;51.872;4.460;2023-07-13T00:35:22;50.03;;;4.13;;
74593;SDS011;63097;51.872;4.460;2023-07-13T00:37:47;36.65;;;3.97;;
74593;SDS011;63097;51.872;4.460;2023-07-13T00:40:13;44.90;;;4.25;;
74593;SDS011;63097;51.872;4.460;2023-07-13T00:42:39;40.55;;;4.50;;
74593;SDS011;63097;51.872;4.460;2023-07-13T00:47:36;36.75;;;4.05;;
74593;SDS011;63097;51.872;4.460;2023-07-13T00:50:02;41.92;;;3.97;;
74593;SDS011;63097;51.872;4.460;2023-07-13T00:52:31;47.78;;;4.35;;
74593;SDS011;63097;51.872;4.460;2023-07-13T00:54:57;25.25;;;3.75;;
74593;SDS011;63097;51.872;4.460;2023-07-13T00:57:23;34.65;;;3.40;;
74593;SDS011;63097;51.872;4.460;2023-07-13T00:59:52;37.67;;;4.07;;
74593;SDS011;63097;51.872;4.460;2023-07-13T01:02:22;24.83;;;3.42;;
74593;SDS011;63097;51.872;4.460;2023-07-13T01:04:48;39.47;;;4.22;;
74593;SDS011;63097;51.872;4.460;2023-07-13T01:07:14;35.67;;;3.65;;
74593;SDS011;63097;51.872;4.460;2023-07-13T01:09:39;33.15;;;3.88;;
74593;SDS011;63097;51.872;4.460;2023-07-13T01:12:05;41.50;;;4.47;;
74593;SDS011;63097;51.872;4.460;2023-07-13T01:14:31;32.30;;;3.70;;
74593;SDS011;63097;51.872;4.460;2023-07-13T01:16:56;25.02;;;2.85;;
74593;SDS011;63097;51.872;4.460;2023-07-13T01:19:42;28.63;;;3.88;;
74593;SDS011;63097;51.872;4.460;2023-07-13T01:22:10;31.25;;;3.58;;
74593;SDS011;63097;51.872;4.460;2023-07-13T01:24:37;21.08;;;2.83;;
74593;SDS011;63097;51.872;4.460;2023-07-13T01:27:04;23.08;;;3.05;;
74593;SDS011;63097;51.872;4.460;2023-07-13T01:29:31;18.67;;;1.85;;
74593;SDS011;63097;51.872;4.460;2023-07-13T01:31:58;15.02;;;1.88;;
74593;SDS011;63097;51.872;4.460;2023-07-13T01:34:24;17.85;;;2.33;;
74593;SDS011;63097;51.872;4.460;2023-07-13T01:36:49;18.25;;;1.95;;
74593;SDS011;63097;51.872;4.460;2023-07-13T01:39:14;15.82;;;2.08;;
74593;SDS011;63097;51.872;4.460;2023-07-13T01:41:40;13.75;;;2.08;;
74593;SDS011;63097;51.872;4.460;2023-07-13T01:44:05;18.67;;;2.03;;
74593;SDS011;63097;51.872;4.460;2023-07-13T01:46:30;8.93;;;1.80;;
74593;SDS011;63097;51.872;4.460;2023-07-13T01:48:56;19.08;;;2.10;;
74593;SDS011;63097;51.872;4.460;2023-07-13T01:51:21;16.13;;;1.42;;
74593;SDS011;63097;51.872;4.460;2023-07-13T01:53:46;14.27;;;1.85;;
74593;SDS011;63097;51.872;4.460;2023-07-13T01:56:11;19.27;;;1.90;;
74593;SDS011;63097;51.872;4.460;2023-07-13T01:58:37;19.88;;;1.80;;
74593;SDS011;63097;51.872;4.460;2023-07-13T02:01:02;15.73;;;1.67;;
74593;SDS011;63097;51.872;4.460;2023-07-13T02:03:27;10.55;;;1.80;;
74593;SDS011;63097;51.872;4.460;2023-07-13T02:05:53;11.50;;;1.65;;
74593;SDS011;63097;51.872;4.460;2023-07-13T02:08:18;24.13;;;2.88;;
74593;SDS011;63097;51.872;4.460;2023-07-13T02:10:43;19.77;;;2.40;;
74593;SDS011;63097;51.872;4.460;2023-07-13T02:13:09;20.75;;;3.13;;
74593;SDS011;63097;51.872;4.460;2023-07-13T02:15:34;31.60;;;2.65;;
74593;SDS011;63097;51.872;4.460;2023-07-13T02:18:03;19.33;;;2.60;;
74593;SDS011;63097;51.872;4.460;2023-07-13T02:20:28;26.08;;;2.92;;
74593;SDS011;63097;51.872;4.460;2023-07-13T02:22:54;27.55;;;2.70;;
74593;SDS011;63097;51.872;4.460;2023-07-13T02:25:19;33.42;;;4.28;;
74593;SDS011;63097;51.872;4.460;2023-07-13T02:27:44;26.92;;;3.83;;
74593;SDS011;63097;51.872;4.460;2023-07-13T02:30:10;32.53;;;3.50;;
74593;SDS011;63097;51.872;4.460;2023-07-13T02:32:36;27.30;;;3.47;;
74593;SDS011;63097;51.872;4.460;2023-07-13T02:35:01;39.40;;;3.65;;
74593;SDS011;63097;51.872;4.460;2023-07-13T02:37:26;34.78;;;3.75;;
74593;SDS011;63097;51.872;4.460;2023-07-13T02:39:52;18.27;;;4.00;;
74593;SDS011;63097;51.872;4.460;2023-07-13T02:42:17;35.80;;;4.00;;
74593;SDS011;63097;51.872;4.460;2023-07-13T02:44:42;36.30;;;4.10;;
74593;SDS011;63097;51.872;4.460;2023-07-13T02:47:08;35.33;;;3.92;;
74593;SDS011;63097;51.872;4.460;2023-07-13T02:49:33;48.75;;;5.05;;
74593;SDS011;63097;51.872;4.460;2023-07-13T02:51:58;32.92;;;4.20;;
74593;SDS011;63097;51.872;4.460;2023-07-13T02:54:24;35.92;;;4.05;;
74593;SDS011;63097;51.872;4.460;2023-07-13T02:56:49;37.10;;;4.85;;
74593;SDS011;63097;51.872;4.460;2023-07-13T02:59:14;34.40;;;3.90;;
74593;SDS011;63097;51.872;4.460;2023-07-13T03:01:40;35.30;;;4.50;;
74593;SDS011;63097;51.872;4.460;2023-07-13T03:04:05;30.95;;;5.05;;
74593;SDS011;63097;51.872;4.460;2023-07-13T03:06:31;42.75;;;5.90;;
74593;SDS011;63097;51.872;4.460;2023-07-13T03:08:57;41.33;;;4.85;;
74593;SDS011;63097;51.872;4.460;2023-07-13T03:11:23;57.22;;;5.20;;
74593;SDS011;63097;51.872;4.460;2023-07-13T03:13:48;36.53;;;5.03;;
74593;SDS011;63097;51.872;4.460;2023-07-13T03:16:14;52.60;;;5.40;;
74593;SDS011;63097;51.872;4.460;2023-07-13T03:18:40;43.45;;;5.90;;
74593;SDS011;63097;51.872;4.460;2023-07-13T03:21:06;48.83;;;6.00;;
74593;SDS011;63097;51.872;4.460;2023-07-13T03:23:31;44.15;;;5.20;;
74593;SDS011;63097;51.872;4.460;2023-07-13T03:28:29;48.95;;;5.72;;
74593;SDS011;63097;51.872;4.460;2023-07-13T03:31:01;43.72;;;5.60;;
74593;SDS011;63097;51.872;4.460;2023-07-13T03:33:28;34.17;;;5.72;;
74593;SDS011;63097;51.872;4.460;2023-07-13T03:35:54;40.42;;;4.68;;
74593;SDS011;63097;51.872;4.460;2023-07-13T03:38:19;33.22;;;4.82;;
74593;SDS011;63097;51.872;4.460;2023-07-13T03:40:44;39.63;;;5.80;;
74593;SDS011;63097;51.872;4.460;2023-07-13T03:43:10;38.95;;;5.80;;
74593;SDS011;63097;51.872;4.460;2023-07-13T03:45:37;43.20;;;6.32;;
74593;SDS011;63097;51.872;4.460;2023-07-13T03:48:03;33.45;;;5.22;;
74593;SDS011;63097;51.872;4.460;2023-07-13T03:50:28;32.58;;;4.93;;
74593;SDS011;63097;51.872;4.460;2023-07-13T03:52:53;40.80;;;5.07;;
74593;SDS011;63097;51.872;4.460;2023-07-13T03:55:19;36.85;;;5.57;;
74593;SDS011;63097;51.872;4.460;2023-07-13T03:57:44;30.95;;;5.10;;
74593;SDS011;63097;51.872;4.460;2023-07-13T04:00:10;48.88;;;5.63;;
74593;SDS011;63097;51.872;4.460;2023-07-13T04:02:35;45.47;;;5.80;;
74593;SDS011;63097;51.872;4.460;2023-07-13T04:05:01;38.13;;;5.18;;
74593;SDS011;63097;51.872;4.460;2023-07-13T04:07:26;42.28;;;5.55;;
74593;SDS011;63097;51.872;4.460;2023-07-13T04:09:51;47.33;;;5.68;;
74593;SDS011;63097;51.872;4.460;2023-07-13T04:12:17;29.67;;;4.82;;
74593;SDS011;63097;51.872;4.460;2023-07-13T04:14:42;41.88;;;6.07;;
74593;SDS011;63097;51.872;4.460;2023-07-13T04:17:07;36.92;;;5.93;;
74593;SDS011;63097;51.872;4.460;2023-07-13T04:19:33;43.83;;;5.97;;
74593;SDS011;63097;51.872;4.460;2023-07-13T04:21:58;38.22;;;5.78;;
74593;SDS011;63097;51.872;4.460;2023-07-13T04:24:23;51.25;;;6.40;;
74593;SDS011;63097;51.872;4.460;2023-07-13T04:26:49;49.35;;;5.40;;
74593;SDS011;63097;51.872;4.460;2023-07-13T04:29:14;31.30;;;5.50;;
74593;SDS011;63097;51.872;4.460;2023-07-13T04:31:39;45.67;;;6.85;;
74593;SDS011;63097;51.872;4.460;2023-07-13T04:34:04;47.67;;;6.72;;
74593;SDS011;63097;51.872;4.460;2023-07-13T04:36:30;42.88;;;6.45;;
74593;SDS011;63097;51.872;4.460;2023-07-13T04:38:55;35.75;;;5.53;;
74593;SDS011;63097;51.872;4.460;2023-07-13T04:41:20;34.38;;;5.05;;
74593;SDS011;63097;51.872;4.460;2023-07-13T04:43:46;40.83;;;5.53;;
74593;SDS011;63097;51.872;4.460;2023-07-13T04:46:14;36.55;;;6.07;;
74593;SDS011;63097;51.872;4.460;2023-07-13T04:48:41;43.55;;;6.43;;
74593;SDS011;63097;51.872;4.460;2023-07-13T04:51:06;30.77;;;4.72;;
74593;SDS011;63097;51.872;4.460;2023-07-13T04:53:32;41.10;;;5.38;;
74593;SDS011;63097;51.872;4.460;2023-07-13T04:55:57;20.67;;;4.40;;
74593;SDS011;63097;51.872;4.460;2023-07-13T04:58:23;34.15;;;5.75;;
74593;SDS011;63097;51.872;4.460;2023-07-13T05:00:49;40.72;;;5.32;;
74593;SDS011;63097;51.872;4.460;2023-07-13T05:03:14;43.25;;;6.38;;
74593;SDS011;63097;51.872;4.460;2023-07-13T05:05:40;44.10;;;6.38;;
74593;SDS011;63097;51.872;4.460;2023-07-13T05:08:05;34.72;;;4.97;;
74593;SDS011;63097;51.872;4.460;2023-07-13T05:10:30;40.75;;;5.18;;
74593;SDS011;63097;51.872;4.460;2023-07-13T05:12:56;31.63;;;5.28;;
74593;SDS011;63097;51.872;4.460;2023-07-13T05:15:21;32.90;;;4.80;;
74593;SDS011;63097;51.872;4.460;2023-07-13T05:17:48;33.90;;;5.65;;
74593;SDS011;63097;51.872;4.460;2023-07-13T05:20:13;41.38;;;4.90;;
74593;SDS011;63097;51.872;4.460;2023-07-13T05:22:39;33.85;;;5.72;;
74593;SDS011;63097;51.872;4.460;2023-07-13T05:25:05;38.08;;;5.30;;
74593;SDS011;63097;51.872;4.460;2023-07-13T05:27:31;35.45;;;5.00;;
74593;SDS011;63097;51.872;4.460;2023-07-13T05:29:57;37.47;;;5.57;;
74593;SDS011;63097;51.872;4.460;2023-07-13T05:32:22;27.83;;;5.43;;
74593;SDS011;63097;51.872;4.460;2023-07-13T05:34:47;29.73;;;4.85;;
74593;SDS011;63097;51.872;4.460;2023-07-13T05:37:13;39.33;;;5.70;;
74593;SDS011;63097;51.872;4.460;2023-07-13T05:39:38;31.95;;;4.93;;
74593;SDS011;63097;51.872;4.460;2023-07-13T05:42:03;30.00;;;4.38;;
74593;SDS011;63097;51.872;4.460;2023-07-13T05:44:29;38.38;;;5.15;;
74593;SDS011;63097;51.872;4.460;2023-07-13T05:46:54;36.22;;;5.03;;
74593;SDS011;63097;51.872;4.460;2023-07-13T05:49:20;29.77;;;5.40;;
74593;SDS011;63097;51.872;4.460;2023-07-13T05:51:46;40.67;;;6.70;;
74593;SDS011;63097;51.872;4.460;2023-07-13T05:54:11;38.25;;;6.70;;
74593;SDS011;63097;51.872;4.460;2023-07-13T05:56:37;58.97;;;8.77;;
74593;SDS011;63097;51.872;4.460;2023-07-13T05:59:02;48.22;;;6.47;;
74593;SDS011;63097;51.872;4.460;2023-07-13T06:01:29;37.80;;;7.63;;
74593;SDS011;63097;51.872;4.460;2023-07-13T06:03:55;41.90;;;6.47;;
74593;SDS011;63097;51.872;4.460;2023-07-13T06:06:20;33.13;;;6.07;;
74593;SDS011;63097;51.872;4.460;2023-07-13T06:08:45;50.88;;;7.75;;
74593;SDS011;63097;51.872;4.460;2023-07-13T06:11:15;42.03;;;6.85;;
74593;SDS011;63097;51.872;4.460;2023-07-13T06:13:42;43.58;;;6.97;;
74593;SDS011;63097;51.872;4.460;2023-07-13T06:16:08;39.58;;;6.35;;
74593;SDS011;63097;51.872;4.460;2023-07-13T06:18:34;27.77;;;6.13;;
74593;SDS011;63097;51.872;4.460;2023-07-13T06:21:05;43.85;;;6.75;;
74593;SDS011;63097;51.872;4.460;2023-07-13T06:23:34;50.55;;;7.85;;
74593;SDS011;63097;51.872;4.460;2023-07-13T06:26:00;33.75;;;7.05;;
74593;SDS011;63097;51.872;4.460;2023-07-13T06:28:25;22.40;;;4.85;;
74593;SDS011;63097;51.872;4.460;2023-07-13T06:30:50;40.58;;;6.93;;
74593;SDS011;63097;51.872;4.460;2023-07-13T06:33:16;39.08;;;5.72;;
74593;SDS011;63097;51.872;4.460;2023-07-13T06:35:41;39.65;;;6.53;;
74593;SDS011;63097;51.872;4.460;2023-07-13T06:38:07;24.75;;;5.25;;
74593;SDS011;63097;51.872;4.460;2023-07-13T06:40:32;23.17;;;5.05;;
74593;SDS011;63097;51.872;4.460;2023-07-13T06:42:58;24.13;;;4.45;;
74593;SDS011;63097;51.872;4.460;2023-07-13T06:45:23;29.35;;;4.45;;
74593;SDS011;63097;51.872;4.460;2023-07-13T06:47:48;24.65;;;4.18;;
74593;SDS011;63097;51.872;4.460;2023-07-13T06:50:13;27.38;;;3.83;;
74593;SDS011;63097;51.872;4.460;2023-07-13T06:52:39;25.77;;;3.53;;
74593;SDS011;63097;51.872;4.460;2023-07-13T06:55:04;28.38;;;4.20;;
74593;SDS011;63097;51.872;4.460;2023-07-13T06:57:30;24.30;;;3.88;;
74593;SDS011;63097;51.872;4.460;2023-07-13T06:59:55;29.85;;;3.85;;
74593;SDS011;63097;51.872;4.460;2023-07-13T07:02:21;22.80;;;4.25;;
74593;SDS011;63097;51.872;4.460;2023-07-13T07:04:46;32.60;;;4.75;;
74593;SDS011;63097;51.872;4.460;2023-07-13T07:07:11;30.35;;;4.68;;
74593;SDS011;63097;51.872;4.460;2023-07-13T07:09:37;20.58;;;4.72;;
74593;SDS011;63097;51.872;4.460;2023-07-13T07:12:02;26.52;;;4.82;;
74593;SDS011;63097;51.872;4.460;2023-07-13T07:14:28;45.95;;;5.93;;
74593;SDS011;63097;51.872;4.460;2023-07-13T07:16:54;18.80;;;4.10;;
74593;SDS011;63097;51.872;4.460;2023-07-13T07:19:19;14.55;;;2.85;;
74593;SDS011;63097;51.872;4.460;2023-07-13T07:21:44;15.50;;;3.28;;
74593;SDS011;63097;51.872;4.460;2023-07-13T07:24:10;19.08;;;4.80;;
74593;SDS011;63097;51.872;4.460;2023-07-13T07:26:35;12.13;;;3.25;;
74593;SDS011;63097;51.872;4.460;2023-07-13T07:29:00;11.93;;;2.60;;
74593;SDS011;63097;51.872;4.460;2023-07-13T07:31:26;14.15;;;3.35;;
74593;SDS011;63097;51.872;4.460;2023-07-13T07:33:51;12.45;;;3.58;;
74593;SDS011;63097;51.872;4.460;2023-07-13T07:36:16;28.00;;;3.95;;
74593;SDS011;63097;51.872;4.460;2023-07-13T07:38:42;11.55;;;4.15;;
74593;SDS011;63097;51.872;4.460;2023-07-13T07:41:08;25.40;;;3.58;;
74593;SDS011;63097;51.872;4.460;2023-07-13T07:43:34;16.17;;;3.30;;
74593;SDS011;63097;51.872;4.460;2023-07-13T07:45:59;16.80;;;3.53;;
74593;SDS011;63097;51.872;4.460;2023-07-13T07:48:25;17.80;;;3.95;;
74593;SDS011;63097;51.872;4.460;2023-07-13T07:50:50;10.18;;;3.60;;
74593;SDS011;63097;51.872;4.460;2023-07-13T07:53:16;8.55;;;3.88;;
74593;SDS011;63097;51.872;4.460;2023-07-13T07:55:41;17.98;;;4.43;;
74593;SDS011;63097;51.872;4.460;2023-07-13T07:58:06;13.52;;;3.30;;
74593;SDS011;63097;51.872;4.460;2023-07-13T08:00:32;18.17;;;3.88;;
74593;SDS011;63097;51.872;4.460;2023-07-13T08:02:58;18.48;;;3.55;;
74593;SDS011;63097;51.872;4.460;2023-07-13T08:05:24;18.52;;;3.72;;
74593;SDS011;63097;51.872;4.460;2023-07-13T08:07:50;28.25;;;4.75;;
74593;SDS011;63097;51.872;4.460;2023-07-13T08:10:15;14.75;;;3.55;;
74593;SDS011;63097;51.872;4.460;2023-07-13T08:12:41;12.52;;;3.63;;
74593;SDS011;63097;51.872;4.460;2023-07-13T08:15:07;22.58;;;4.15;;
74593;SDS011;63097;51.872;4.460;2023-07-13T08:17:36;21.30;;;3.60;;
74593;SDS011;63097;51.872;4.460;2023-07-13T08:20:01;21.08;;;3.40;;
74593;SDS011;63097;51.872;4.460;2023-07-13T08:22:27;17.17;;;3.65;;
74593;SDS011;63097;51.872;4.460;2023-07-13T08:24:53;13.73;;;3.40;;
74593;SDS011;63097;51.872;4.460;2023-07-13T08:27:18;19.60;;;3.45;;
74593;SDS011;63097;51.872;4.460;2023-07-13T08:29:43;23.40;;;3.60;;
74593;SDS011;63097;51.872;4.460;2023-07-13T08:32:08;20.65;;;3.80;;
74593;SDS011;63097;51.872;4.460;2023-07-13T08:34:34;12.75;;;3.85;;
74593;SDS011;63097;51.872;4.460;2023-07-13T08:37:00;19.83;;;3.22;;
74593;SDS011;63097;51.872;4.460;2023-07-13T08:39:25;15.48;;;3.95;;
74593;SDS011;63097;51.872;4.460;2023-07-13T08:41:51;10.90;;;3.28;;
74593;SDS011;63097;51.872;4.460;2023-07-13T08:44:25;23.00;;;4.18;;
74593;SDS011;63097;51.872;4.460;2023-07-13T08:47:04;16.17;;;3.75;;
74593;SDS011;63097;51.872;4.460;2023-07-13T08:49:31;17.10;;;3.22;;
74593;SDS011;63097;51.872;4.460;2023-07-13T08:52:33;11.93;;;3.28;;
74593;SDS011;63097;51.872;4.460;2023-07-13T08:55:12;12.35;;;3.22;;
74593;SDS011;63097;51.872;4.460;2023-07-13T08:57:38;13.50;;;3.45;;
74593;SDS011;63097;51.872;4.460;2023-07-13T09:00:10;16.40;;;2.65;;
74593;SDS011;63097;51.872;4.460;2023-07-13T09:02:42;24.85;;;3.78;;
74593;SDS011;63097;51.872;4.460;2023-07-13T09:05:15;26.17;;;3.55;;
74593;SDS011;63097;51.872;4.460;2023-07-13T09:10:45;13.50;;;3.13;;
74593;SDS011;63097;51.872;4.460;2023-07-13T09:15:48;15.60;;;3.70;;
74593;SDS011;63097;51.872;4.460;2023-07-13T09:18:25;16.45;;;4.10;;
74593;SDS011;63097;51.872;4.460;2023-07-13T09:21:05;16.83;;;3.13;;
74593;SDS011;63097;51.872;4.460;2023-07-13T09:23:36;13.38;;;3.50;;
74593;SDS011;63097;51.872;4.460;2023-07-13T09:26:18;16.20;;;3.13;;
74593;SDS011;63097;51.872;4.460;2023-07-13T09:28:49;20.23;;;3.40;;
74593;SDS011;63097;51.872;4.460;2023-07-13T09:31:26;20.88;;;3.80;;
74593;SDS011;63097;51.872;4.460;2023-07-13T09:33:52;12.38;;;3.13;;
74593;SDS011;63097;51.872;4.460;2023-07-13T09:36:25;11.35;;;3.25;;
74593;SDS011;63097;51.872;4.460;2023-07-13T09:38:59;15.45;;;3.15;;
74593;SDS011;63097;51.872;4.460;2023-07-13T09:44:12;13.13;;;3.65;;
74593;SDS011;63097;51.872;4.460;2023-07-13T09:46:43;15.50;;;3.40;;
74593;SDS011;63097;51.872;4.460;2023-07-13T09:49:10;11.48;;;3.38;;
74593;SDS011;63097;51.872;4.460;2023-07-13T09:51:37;10.93;;;2.92;;
74593;SDS011;63097;51.872;4.460;2023-07-13T09:54:05;9.25;;;2.40;;
74593;SDS011;63097;51.872;4.460;2023-07-13T09:56:30;11.50;;;3.03;;
74593;SDS011;63097;51.872;4.460;2023-07-13T09:58:56;14.27;;;2.60;;
74593;SDS011;63097;51.872;4.460;2023-07-13T10:01:33;16.50;;;2.70;;
74593;SDS011;63097;51.872;4.460;2023-07-13T10:04:20;12.48;;;2.38;;
74593;SDS011;63097;51.872;4.460;2023-07-13T10:06:51;17.90;;;2.55;;
74593;SDS011;63097;51.872;4.460;2023-07-13T10:09:30;9.27;;;2.47;;
74593;SDS011;63097;51.872;4.460;2023-07-13T10:11:55;6.30;;;2.10;;
74593;SDS011;63097;51.872;4.460;2023-07-13T10:14:21;10.32;;;2.80;;
74593;SDS011;63097;51.872;4.460;2023-07-13T10:16:47;13.57;;;2.70;;
74593;SDS011;63097;51.872;4.460;2023-07-13T10:19:17;9.07;;;2.42;;
74593;SDS011;63097;51.872;4.460;2023-07-13T10:24:22;16.58;;;2.25;;
74593;SDS011;63097;51.872;4.460;2023-07-13T10:30:02;17.05;;;2.10;;
74593;SDS011;63097;51.872;4.460;2023-07-13T10:32:46;8.80;;;3.00;;
74593;SDS011;63097;51.872;4.460;2023-07-13T10:35:13;13.55;;;2.03;;
74593;SDS011;63097;51.872;4.460;2023-07-13T10:37:45;12.85;;;2.53;;
74593;SDS011;63097;51.872;4.460;2023-07-13T10:40:18;12.70;;;2.38;;
74593;SDS011;63097;51.872;4.460;2023-07-13T10:42:45;9.85;;;2.50;;
74593;SDS011;63097;51.872;4.460;2023-07-13T10:45:17;5.78;;;2.08;;
74593;SDS011;63097;51.872;4.460;2023-07-13T10:47:46;4.43;;;1.80;;
74593;SDS011;63097;51.872;4.460;2023-07-13T10:50:20;5.45;;;1.85;;
74593;SDS011;63097;51.872;4.460;2023-07-13T10:52:51;7.38;;;1.77;;
74593;SDS011;63097;51.872;4.460;2023-07-13T10:55:34;9.90;;;2.50;;
74593;SDS011;63097;51.872;4.460;2023-07-13T10:58:18;5.43;;;1.70;;
74593;SDS011;63097;51.872;4.460;2023-07-13T11:03:55;10.25;;;1.95;;
74593;SDS011;63097;51.872;4.460;2023-07-13T11:08:54;7.78;;;1.85;;
74593;SDS011;63097;51.872;4.460;2023-07-13T11:18:53;10.02;;;1.85;;
74593;SDS011;63097;51.872;4.460;2023-07-13T11:24:47;5.75;;;1.67;;
74593;SDS011;63097;51.872;4.460;2023-07-13T11:27:33;8.25;;;1.80;;
74593;SDS011;63097;51.872;4.460;2023-07-13T11:32:44;7.35;;;1.58;;
74593;SDS011;63097;51.872;4.460;2023-07-13T11:35:13;5.13;;;1.42;;
74593;SDS011;63097;51.872;4.460;2023-07-13T11:37:42;9.13;;;1.83;;
74593;SDS011;63097;51.872;4.460;2023-07-13T11:40:13;10.05;;;1.80;;
74593;SDS011;63097;51.872;4.460;2023-07-13T11:42:40;4.75;;;1.55;;
74593;SDS011;63097;51.872;4.460;2023-07-13T11:45:14;7.15;;;1.67;;
74593;SDS011;63097;51.872;4.460;2023-07-13T11:47:45;3.92;;;1.52;;
74593;SDS011;63097;51.872;4.460;2023-07-13T11:50:21;7.60;;;1.85;;
74593;SDS011;63097;51.872;4.460;2023-07-13T11:52:48;7.25;;;1.10;;
74593;SDS011;63097;51.872;4.460;2023-07-13T11:55:17;3.72;;;1.17;;
74593;SDS011;63097;51.872;4.460;2023-07-13T11:57:45;7.63;;;1.40;;
74593;SDS011;63097;51.872;4.460;2023-07-13T12:00:15;5.13;;;1.23;;
74593;SDS011;63097;51.872;4.460;2023-07-13T12:02:45;7.53;;;1.45;;
74593;SDS011;63097;51.872;4.460;2023-07-13T12:05:13;5.30;;;1.15;;
74593;SDS011;63097;51.872;4.460;2023-07-13T12:07:40;5.10;;;1.50;;
74593;SDS011;63097;51.872;4.460;2023-07-13T12:10:23;4.53;;;1.40;;
74593;SDS011;63097;51.872;4.460;2023-07-13T12:13:01;7.18;;;1.48;;
74593;SDS011;63097;51.872;4.460;2023-07-13T12:15:28;3.13;;;0.85;;
74593;SDS011;63097;51.872;4.460;2023-07-13T12:18:01;7.03;;;1.27;;
74593;SDS011;63097;51.872;4.460;2023-07-13T12:20:27;6.68;;;1.50;;
74593;SDS011;63097;51.872;4.460;2023-07-13T12:23:00;4.85;;;1.10;;
74593;SDS011;63097;51.872;4.460;2023-07-13T12:25:25;6.85;;;1.60;;
74593;SDS011;63097;51.872;4.460;2023-07-13T12:27:51;5.00;;;1.35;;
74593;SDS011;63097;51.872;4.460;2023-07-13T12:30:22;11.23;;;1.60;;
74593;SDS011;63097;51.872;4.460;2023-07-13T12:33:00;11.07;;;1.30;;
74593;SDS011;63097;51.872;4.460;2023-07-13T12:35:29;6.22;;;1.08;;
74593;SDS011;63097;51.872;4.460;2023-07-13T12:37:56;4.78;;;1.30;;
74593;SDS011;63097;51.872;4.460;2023-07-13T12:40:25;6.88;;;1.63;;
74593;SDS011;63097;51.872;4.460;2023-07-13T12:42:56;4.18;;;1.30;;
74593;SDS011;63097;51.872;4.460;2023-07-13T12:45:23;5.75;;;1.58;;
74593;SDS011;63097;51.872;4.460;2023-07-13T12:47:56;5.43;;;1.20;;
74593;SDS011;63097;51.872;4.460;2023-07-13T12:50:24;9.65;;;1.30;;
74593;SDS011;63097;51.872;4.460;2023-07-13T12:53:03;4.60;;;1.23;;
74593;SDS011;63097;51.872;4.460;2023-07-13T12:55:30;6.97;;;1.52;;
74593;SDS011;63097;51.872;4.460;2023-07-13T12:57:56;3.90;;;1.30;;
74593;SDS011;63097;51.872;4.460;2023-07-13T13:00:35;7.28;;;1.35;;
74593;SDS011;63097;51.872;4.460;2023-07-13T13:03:07;7.32;;;0.93;;
74593;SDS011;63097;51.872;4.460;2023-07-13T13:05:44;4.13;;;1.15;;
74593;SDS011;63097;51.872;4.460;2023-07-13T13:08:11;5.25;;;1.42;;
74593;SDS011;63097;51.872;4.460;2023-07-13T13:10:36;3.58;;;1.05;;
74593;SDS011;63097;51.872;4.460;2023-07-13T13:13:02;5.85;;;1.33;;
74593;SDS011;63097;51.872;4.460;2023-07-13T13:15:27;3.30;;;1.23;;
74593;SDS011;63097;51.872;4.460;2023-07-13T13:17:52;6.00;;;1.20;;
74593;SDS011;63097;51.872;4.460;2023-07-13T13:20:18;2.80;;;1.00;;
74593;SDS011;63097;51.872;4.460;2023-07-13T13:22:45;5.45;;;1.60;;
74593;SDS011;63097;51.872;4.460;2023-07-13T13:25:11;2.47;;;1.20;;
74593;SDS011;63097;51.872;4.460;2023-07-13T13:27:37;3.90;;;1.38;;
74593;SDS011;63097;51.872;4.460;2023-07-13T13:30:09;7.97;;;1.30;;
74593;SDS011;63097;51.872;4.460;2023-07-13T13:32:36;9.90;;;1.38;;
74593;SDS011;63097;51.872;4.460;2023-07-13T13:35:01;4.38;;;1.05;;
74593;SDS011;63097;51.872;4.460;2023-07-13T13:37:26;6.18;;;1.48;;
74593;SDS011;63097;51.872;4.460;2023-07-13T13:39:52;5.97;;;1.13;;
74593;SDS011;63097;51.872;4.460;2023-07-13T13:42:17;8.23;;;2.35;;
74593;SDS011;63097;51.872;4.460;2023-07-13T13:44:43;3.63;;;1.20;;
74593;SDS011;63097;51.872;4.460;2023-07-13T13:47:29;5.07;;;1.20;;
74593;SDS011;63097;51.872;4.460;2023-07-13T13:49:57;4.05;;;1.10;;
74593;SDS011;63097;51.872;4.460;2023-07-13T13:52:23;4.05;;;1.35;;
74593;SDS011;63097;51.872;4.460;2023-07-13T13:54:49;3.60;;;1.05;;
74593;SDS011;63097;51.872;4.460;2023-07-13T13:57:14;2.47;;;1.20;;
74593;SDS011;63097;51.872;4.460;2023-07-13T13:59:39;5.57;;;1.40;;
74593;SDS011;63097;51.872;4.460;2023-07-13T14:02:11;3.73;;;1.30;;
74593;SDS011;63097;51.872;4.460;2023-07-13T14:04:49;3.75;;;1.45;;
74593;SDS011;63097;51.872;4.460;2023-07-13T14:07:19;6.38;;;1.33;;
74593;SDS011;63097;51.872;4.460;2023-07-13T14:09:44;5.97;;;1.67;;
74593;SDS011;63097;51.872;4.460;2023-07-13T14:12:09;5.27;;;1.37;;
74593;SDS011;63097;51.872;4.460;2023-07-13T14:14:35;6.85;;;1.27;;
74593;SDS011;63097;51.872;4.460;2023-07-13T14:17:00;6.43;;;1.40;;
74593;SDS011;63097;51.872;4.460;2023-07-13T14:19:26;5.67;;;1.10;;
74593;SDS011;63097;51.872;4.460;2023-07-13T14:21:51;6.77;;;1.40;;
74593;SDS011;63097;51.872;4.460;2023-07-13T14:24:16;4.73;;;1.00;;
74593;SDS011;63097;51.872;4.460;2023-07-13T14:26:42;7.47;;;1.10;;
74593;SDS011;63097;51.872;4.460;2023-07-13T14:29:11;3.25;;;1.10;;
74593;SDS011;63097;51.872;4.460;2023-07-13T14:31:39;3.83;;;1.17;;
74593;SDS011;63097;51.872;4.460;2023-07-13T14:34:04;5.22;;;1.10;;
74593;SDS011;63097;51.872;4.460;2023-07-13T14:36:40;9.73;;;1.23;;
74593;SDS011;63097;51.872;4.460;2023-07-13T14:39:17;8.38;;;1.40;;
74593;SDS011;63097;51.872;4.460;2023-07-13T14:41:44;3.15;;;1.13;;
74593;SDS011;63097;51.872;4.460;2023-07-13T14:44:11;10.25;;;1.50;;
74593;SDS011;63097;51.872;4.460;2023-07-13T14:46:40;4.78;;;1.10;;
74593;SDS011;63097;51.872;4.460;2023-07-13T14:49:11;5.30;;;1.30;;
74593;SDS011;63097;51.872;4.460;2023-07-13T14:51:46;9.82;;;1.58;;
74593;SDS011;63097;51.872;4.460;2023-07-13T14:54:11;7.40;;;1.50;;
74593;SDS011;63097;51.872;4.460;2023-07-13T14:56:37;10.83;;;1.40;;
74593;SDS011;63097;51.872;4.460;2023-07-13T14:59:02;7.85;;;1.38;;
74593;SDS011;63097;51.872;4.460;2023-07-13T15:01:28;5.15;;;1.23;;
74593;SDS011;63097;51.872;4.460;2023-07-13T15:03:53;5.10;;;1.08;;
74593;SDS011;63097;51.872;4.460;2023-07-13T15:06:19;3.83;;;1.10;;
74593;SDS011;63097;51.872;4.460;2023-07-13T15:08:44;8.38;;;0.95;;
74593;SDS011;63097;51.872;4.460;2023-07-13T15:11:10;5.07;;;1.40;;
74593;SDS011;63097;51.872;4.460;2023-07-13T15:13:36;4.95;;;1.20;;
74593;SDS011;63097;51.872;4.460;2023-07-13T15:16:01;6.23;;;1.30;;
74593;SDS011;63097;51.872;4.460;2023-07-13T15:18:26;3.30;;;1.00;;